createdAt,value
2023-05-11T00:00:21.982Z,1.50
2023-05-11T00:02:53.021Z,1.87
2023-05-11T00:05:23.798Z,1.83
2023-05-11T00:07:54.443Z,1.57
2023-05-11T00:10:25.493Z,1.82
2023-05-11T00:12:56.203Z,1.50
2023-05-11T00:15:27.180Z,1.53
2023-05-11T00:17:57.870Z,1.53
2023-05-11T00:20:28.598Z,1.43
2023-05-11T00:22:59.384Z,1.47
2023-05-11T00:25:29.956Z,1.70
2023-05-11T00:28:00.831Z,1.87
2023-05-11T00:30:31.625Z,1.53
2023-05-11T00:33:02.384Z,1.70
2023-05-11T00:35:33.527Z,1.23
2023-05-11T00:38:04.183Z,1.57
2023-05-11T00:40:35.329Z,1.50
2023-05-11T00:43:06.011Z,1.40
2023-05-11T00:45:37.760Z,2.10
2023-05-11T00:48:08.939Z,1.40
2023-05-11T00:50:40.029Z,1.43
2023-05-11T00:53:11.806Z,2.00
2023-05-11T00:55:42.969Z,1.73
2023-05-11T00:58:13.595Z,1.90
2023-05-11T01:00:44.770Z,1.77
2023-05-11T01:03:17.222Z,1.80
2023-05-11T01:08:31.274Z,1.77
2023-05-11T01:11:06.125Z,1.40
2023-05-11T01:13:40.195Z,1.73
2023-05-11T01:16:13.836Z,1.50
2023-05-11T01:18:46.987Z,1.50
2023-05-11T01:21:19.661Z,2.27
2023-05-11T01:24:03.941Z,1.70
2023-05-11T01:26:42.866Z,1.93
2023-05-11T01:29:23.632Z,2.13
2023-05-11T01:31:56.980Z,1.57
2023-05-11T01:34:30.920Z,1.80
2023-05-11T01:37:04.665Z,1.83
2023-05-11T01:39:37.654Z,1.97
2023-05-11T01:42:11.587Z,1.87
2023-05-11T01:44:45.544Z,1.90
2023-05-11T01:47:17.486Z,1.70
2023-05-11T01:49:48.649Z,1.63
2023-05-11T01:52:21.946Z,1.77
2023-05-11T01:54:55.543Z,1.80
2023-05-11T01:57:27.180Z,1.40
2023-05-11T01:59:59.190Z,1.97
2023-05-11T02:02:33.155Z,1.77
2023-05-11T02:05:23.855Z,1.50
2023-05-11T02:07:57.252Z,1.63
2023-05-11T02:10:29.374Z,1.70
2023-05-11T02:13:01.579Z,1.40
2023-05-11T02:15:34.347Z,1.63
2023-05-11T02:18:08.459Z,1.57
2023-05-11T02:20:40.591Z,1.77
2023-05-11T02:23:13.006Z,1.80
2023-05-11T02:25:45.014Z,2.20
2023-05-11T02:28:15.865Z,2.00
2023-05-11T02:30:48.473Z,2.10
2023-05-11T02:33:22.942Z,1.80
2023-05-11T02:35:55.759Z,1.60
2023-05-11T02:38:29.793Z,1.80
2023-05-11T02:41:04.295Z,1.70
2023-05-11T02:43:38.443Z,1.57
2023-05-11T02:46:12.364Z,1.50
2023-05-11T02:48:46.108Z,1.70
2023-05-11T02:51:19.286Z,1.70
2023-05-11T02:53:53.162Z,1.70
2023-05-11T02:56:25.073Z,2.10
2023-05-11T02:58:56.069Z,1.73
2023-05-11T03:01:29.694Z,1.50
2023-05-11T03:04:00.185Z,1.50
2023-05-11T03:06:31.503Z,1.30
2023-05-11T03:09:03.638Z,1.67
2023-05-11T03:11:35.333Z,1.30
2023-05-11T03:14:06.551Z,1.70
2023-05-11T03:16:38.496Z,1.30
2023-05-11T03:19:09.888Z,1.43
2023-05-11T03:21:42.343Z,1.60
2023-05-11T03:24:13.495Z,1.40
2023-05-11T03:26:46.336Z,1.60
2023-05-11T03:29:19.229Z,1.77
2023-05-11T03:31:51.201Z,1.63
2023-05-11T03:34:22.398Z,1.57
2023-05-11T03:36:54.012Z,1.93
2023-05-11T03:39:25.832Z,1.50
2023-05-11T03:41:58.170Z,1.73
2023-05-11T03:44:30.795Z,1.40
2023-05-11T03:47:04.177Z,1.50
2023-05-11T03:49:35.559Z,1.77
2023-05-11T03:52:08.000Z,1.50
2023-05-11T03:54:39.102Z,1.60
2023-05-11T03:57:11.216Z,1.80
2023-05-11T03:59:43.033Z,1.27
2023-05-11T04:02:13.748Z,1.60
2023-05-11T04:04:44.522Z,1.33
2023-05-11T04:07:15.428Z,1.50
2023-05-11T04:09:46.241Z,1.30
2023-05-11T04:12:16.871Z,1.53
2023-05-11T04:14:47.615Z,1.60
2023-05-11T04:17:18.149Z,1.20
2023-05-11T04:19:48.764Z,1.30
2023-05-11T04:22:19.496Z,1.10
2023-05-11T04:24:50.107Z,1.27
2023-05-11T04:27:22.142Z,0.97
2023-05-11T04:29:52.824Z,1.30
2023-05-11T04:32:23.714Z,1.13
2023-05-11T04:34:54.355Z,1.70
2023-05-11T04:37:25.753Z,1.20
2023-05-11T04:39:57.836Z,1.30
2023-05-11T04:42:28.584Z,1.50
2023-05-11T04:44:59.266Z,1.20
2023-05-11T04:50:07.449Z,1.40
2023-05-11T04:52:38.140Z,1.33
2023-05-11T04:55:10.268Z,1.40
2023-05-11T04:57:40.993Z,1.20
2023-05-11T05:00:13.937Z,1.23
2023-05-11T05:02:44.668Z,1.50
2023-05-11T05:05:15.308Z,1.17
2023-05-11T05:07:46.037Z,1.33
2023-05-11T05:10:16.913Z,1.20
2023-05-11T05:12:47.881Z,1.27
2023-05-11T05:15:18.572Z,1.50
2023-05-11T05:17:49.327Z,1.60
2023-05-11T05:20:20.382Z,1.30
2023-05-11T05:22:51.392Z,1.70
2023-05-11T05:25:22.597Z,1.50
2023-05-11T05:27:53.224Z,1.30
2023-05-11T05:30:24.011Z,1.50
2023-05-11T05:32:55.891Z,1.30
2023-05-11T05:35:26.555Z,1.30
2023-05-11T05:37:57.124Z,1.30
2023-05-11T05:40:27.710Z,1.30
2023-05-11T05:42:58.335Z,1.10
2023-05-11T05:45:29.144Z,1.27
2023-05-11T05:48:00.492Z,1.03
2023-05-11T05:50:31.179Z,1.03
2023-05-11T05:53:01.949Z,1.00
2023-05-11T05:55:32.507Z,1.37
2023-05-11T05:58:03.111Z,1.30
2023-05-11T06:00:33.894Z,0.90
2023-05-11T06:03:05.033Z,0.80
2023-05-11T06:05:35.801Z,1.00
2023-05-11T06:08:10.993Z,0.95
2023-05-11T06:10:38.904Z,0.93
2023-05-11T06:13:11.198Z,0.93
2023-05-11T06:15:43.713Z,0.93
2023-05-11T06:18:13.943Z,0.90
2023-05-11T06:20:44.614Z,0.80
2023-05-11T06:23:15.241Z,0.90
2023-05-11T06:25:46.003Z,0.83
2023-05-11T06:28:16.574Z,1.03
2023-05-11T06:30:47.267Z,0.93
2023-05-11T06:33:17.890Z,0.90
2023-05-11T06:35:48.844Z,1.20
2023-05-11T06:38:19.414Z,1.07
2023-05-11T06:40:53.050Z,1.00
2023-05-11T06:43:23.632Z,0.93
2023-05-11T06:45:54.375Z,1.00
2023-05-11T06:48:26.127Z,0.87
2023-05-11T06:50:56.807Z,1.07
2023-05-11T06:53:28.532Z,0.93
2023-05-11T06:55:59.114Z,1.10
2023-05-11T06:58:29.715Z,1.00
2023-05-11T07:01:00.310Z,0.90
2023-05-11T07:03:31.043Z,1.00
2023-05-11T07:06:01.631Z,0.83
2023-05-11T07:08:32.211Z,0.97
2023-05-11T07:11:02.934Z,0.73
2023-05-11T07:13:33.620Z,1.20
2023-05-11T07:16:04.666Z,0.90
2023-05-11T07:18:35.367Z,0.70
2023-05-11T07:21:06.268Z,1.10
2023-05-11T07:23:37.132Z,0.70
2023-05-11T07:26:09.389Z,0.70
2023-05-11T07:28:40.629Z,0.90
2023-05-11T07:31:11.266Z,1.10
2023-05-11T07:33:41.917Z,0.90
2023-05-11T07:36:12.581Z,0.80
2023-05-11T07:38:43.327Z,0.77
2023-05-11T07:41:13.876Z,0.60
2023-05-11T07:43:44.429Z,1.00
2023-05-11T07:46:15.074Z,0.70
2023-05-11T07:48:46.076Z,0.83
2023-05-11T07:51:16.848Z,0.80
2023-05-11T07:53:47.543Z,0.73
2023-05-11T07:56:18.264Z,1.00
2023-05-11T07:58:49.037Z,0.93
2023-05-11T08:01:19.727Z,0.60
2023-05-11T08:03:50.413Z,0.50
2023-05-11T08:06:21.161Z,0.73
2023-05-11T08:08:52.248Z,0.80
2023-05-11T08:11:22.969Z,0.90
2023-05-11T08:13:53.623Z,0.73
2023-05-11T08:16:24.256Z,0.90
2023-05-11T08:18:54.987Z,0.70
2023-05-11T08:21:26.524Z,0.80
2023-05-11T08:23:57.112Z,0.70
2023-05-11T08:26:28.486Z,0.80
2023-05-11T08:28:59.076Z,0.60
2023-05-11T08:31:29.963Z,0.87
2023-05-11T08:34:00.899Z,0.63
2023-05-11T08:36:32.135Z,0.63
2023-05-11T08:39:02.962Z,0.87
2023-05-11T08:41:34.280Z,0.60
2023-05-11T08:44:05.380Z,0.50
2023-05-11T08:49:16.492Z,0.80
2023-05-11T08:51:48.874Z,0.80
2023-05-11T08:54:19.439Z,0.60
2023-05-11T08:56:52.187Z,0.40
2023-05-11T08:59:23.829Z,0.60
2023-05-11T09:01:55.557Z,0.60
2023-05-11T09:04:27.715Z,0.70
2023-05-11T09:06:59.024Z,0.60
2023-05-11T09:09:29.569Z,0.70
2023-05-11T09:12:00.258Z,0.70
2023-05-11T09:14:31.206Z,0.70
2023-05-11T09:17:03.303Z,0.53
2023-05-11T09:19:34.123Z,0.80
2023-05-11T09:22:06.083Z,0.60
2023-05-11T09:24:36.838Z,0.50
2023-05-11T09:27:11.132Z,0.90
2023-05-11T09:29:41.659Z,0.67
2023-05-11T09:32:12.784Z,0.40
2023-05-11T09:34:43.793Z,0.70
2023-05-11T09:37:19.420Z,0.70
2023-05-11T09:42:25.162Z,0.60
2023-05-11T09:44:55.985Z,0.88
2023-05-11T09:47:46.402Z,0.67
2023-05-11T09:50:26.418Z,0.63
2023-05-11T09:52:54.569Z,0.47
2023-05-11T09:55:25.475Z,0.60
2023-05-11T09:58:00.683Z,0.80
2023-05-11T10:00:31.683Z,0.90
2023-05-11T10:03:04.378Z,0.70
2023-05-11T10:05:37.805Z,0.60
2023-05-11T10:08:09.294Z,0.93
2023-05-11T10:10:39.897Z,1.37
2023-05-11T10:13:10.570Z,0.90
2023-05-11T10:15:41.602Z,0.60
2023-05-11T10:18:12.397Z,0.40
2023-05-11T10:20:43.489Z,0.70
2023-05-11T10:23:15.971Z,0.40
2023-05-11T10:25:48.046Z,0.40
2023-05-11T10:28:20.302Z,0.70
2023-05-11T10:30:50.952Z,0.40
2023-05-11T10:33:21.790Z,0.27
2023-05-11T10:35:54.235Z,0.53
2023-05-11T10:38:26.004Z,0.50
2023-05-11T10:40:59.612Z,0.20
2023-05-11T10:43:55.987Z,0.47
2023-05-11T10:46:44.926Z,0.30
2023-05-11T10:49:31.649Z,0.10
2023-05-11T10:52:16.823Z,0.20
2023-05-11T10:54:53.710Z,0.30
2023-05-11T10:57:39.738Z,0.10
2023-05-11T11:00:52.648Z,0.40
2023-05-11T11:03:23.442Z,0.53
2023-05-11T11:05:54.244Z,0.23
2023-05-11T11:08:25.939Z,0.60
2023-05-11T11:10:57.017Z,0.30
2023-05-11T11:13:27.672Z,0.40
2023-05-11T11:16:16.539Z,0.60
2023-05-11T11:18:47.740Z,0.40
2023-05-11T11:21:39.040Z,0.50
2023-05-11T11:24:09.872Z,0.50
2023-05-11T11:26:52.183Z,0.33
2023-05-11T11:29:23.017Z,0.27
2023-05-11T11:31:53.699Z,0.93
2023-05-11T11:34:37.801Z,0.40
2023-05-11T11:37:09.780Z,0.47
2023-05-11T11:40:16.602Z,0.50
2023-05-11T11:42:42.123Z,0.50
2023-05-11T11:45:31.603Z,0.43
2023-05-11T11:48:14.055Z,0.43
2023-05-11T11:50:47.137Z,0.50
2023-05-11T11:54:10.543Z,0.40
2023-05-11T11:56:50.173Z,0.40
2023-05-11T11:59:20.858Z,0.60
2023-05-11T12:01:54.932Z,0.50
2023-05-11T12:04:57.806Z,0.80
2023-05-11T12:07:30.281Z,0.30
2023-05-11T12:10:02.550Z,0.20
2023-05-11T12:12:33.698Z,0.20
2023-05-11T12:15:04.304Z,0.20
2023-05-11T12:17:36.215Z,0.10
2023-05-11T12:20:19.422Z,0.43
2023-05-11T12:22:50.735Z,0.53
2023-05-11T12:25:22.959Z,0.40
2023-05-11T12:27:55.908Z,0.90
2023-05-11T12:30:27.963Z,0.50
2023-05-11T12:33:00.151Z,0.60
2023-05-11T12:35:33.264Z,0.40
2023-05-11T12:38:04.461Z,0.40
2023-05-11T12:40:35.968Z,0.33
2023-05-11T12:43:07.719Z,0.40
2023-05-11T12:45:39.257Z,0.60
2023-05-11T12:48:11.068Z,0.53
2023-05-11T12:50:44.345Z,0.80
2023-05-11T12:53:19.501Z,0.60
2023-05-11T12:55:59.638Z,0.60
2023-05-11T12:58:37.903Z,0.80
2023-05-11T13:01:09.827Z,0.60
2023-05-11T13:03:40.583Z,0.70
2023-05-11T13:06:13.872Z,0.60
2023-05-11T13:08:47.924Z,0.50
2023-05-11T13:11:23.231Z,0.30
2023-05-11T13:13:54.417Z,0.30
2023-05-11T13:16:29.703Z,0.50
2023-05-11T13:19:01.621Z,0.43
2023-05-11T13:21:33.897Z,0.30
2023-05-11T13:24:04.794Z,0.30
2023-05-11T13:26:35.411Z,0.30
2023-05-11T13:29:11.155Z,0.20
2023-05-11T13:31:46.544Z,0.27
2023-05-11T13:34:18.006Z,0.20
2023-05-11T13:36:49.170Z,0.20
2023-05-11T13:39:19.858Z,0.50
2023-05-11T13:41:50.466Z,0.20
2023-05-11T13:44:21.311Z,0.20
2023-05-11T13:46:51.978Z,0.40
2023-05-11T13:49:23.223Z,0.60
2023-05-11T13:51:55.600Z,0.50
2023-05-11T13:54:26.267Z,1.13
2023-05-11T13:56:58.013Z,0.67
2023-05-11T13:59:29.102Z,0.63
2023-05-11T14:01:59.858Z,0.80
2023-05-11T14:04:30.763Z,1.03
2023-05-11T14:07:01.829Z,0.97
2023-05-11T14:09:32.462Z,0.77
2023-05-11T14:12:03.295Z,0.50
2023-05-11T14:14:34.021Z,0.60
2023-05-11T14:17:04.738Z,0.50
2023-05-11T14:19:35.486Z,0.40
2023-05-11T14:22:06.662Z,0.50
2023-05-11T14:24:37.375Z,0.50
2023-05-11T14:27:08.684Z,0.50
2023-05-11T14:29:42.567Z,0.40
2023-05-11T14:32:11.709Z,0.63
2023-05-11T14:34:43.082Z,0.30
2023-05-11T14:37:13.926Z,0.20
2023-05-11T14:39:45.117Z,0.30
2023-05-11T14:42:15.944Z,0.77
2023-05-11T14:44:47.187Z,0.20
2023-05-11T14:47:18.179Z,0.30
2023-05-11T14:49:48.752Z,0.20
2023-05-11T14:52:19.445Z,0.47
2023-05-11T14:54:50.314Z,0.30
2023-05-11T14:57:24.147Z,0.33
2023-05-11T15:00:00.103Z,0.33
2023-05-11T15:02:28.492Z,0.20
2023-05-11T15:07:39.493Z,0.20
2023-05-11T15:10:11.423Z,0.50
2023-05-11T15:12:42.329Z,0.30
2023-05-11T15:15:13.765Z,0.27
2023-05-11T15:17:44.405Z,0.43
2023-05-11T15:20:15.446Z,0.50
2023-05-11T15:22:46.199Z,0.80
2023-05-11T15:25:17.184Z,0.20
2023-05-11T15:27:48.172Z,0.40
2023-05-11T15:30:18.919Z,1.17
2023-05-11T15:32:50.420Z,0.67
2023-05-11T15:35:21.846Z,0.67
2023-05-11T15:37:52.512Z,0.60
2023-05-11T15:40:24.557Z,0.80
2023-05-11T15:42:57.952Z,0.60
2023-05-11T15:45:28.114Z,0.90
2023-05-11T15:47:59.038Z,0.53
2023-05-11T15:50:29.806Z,0.80
2023-05-11T15:53:01.131Z,0.73
2023-05-11T15:55:31.869Z,0.50
2023-05-11T15:58:02.540Z,0.50
2023-05-11T16:00:33.172Z,0.20
2023-05-11T16:03:04.048Z,0.43
2023-05-11T16:05:35.158Z,0.30
2023-05-11T16:08:06.826Z,0.53
2023-05-11T16:10:37.558Z,0.40
2023-05-11T16:13:08.357Z,0.50
2023-05-11T16:15:40.132Z,0.60
2023-05-11T16:18:10.952Z,0.60
2023-05-11T16:20:42.329Z,0.30
2023-05-11T16:23:13.822Z,0.50
2023-05-11T16:25:44.659Z,0.43
2023-05-11T16:28:15.468Z,0.40
2023-05-11T16:30:46.155Z,0.50
2023-05-11T16:33:17.946Z,0.20
2023-05-11T16:35:48.672Z,0.40
2023-05-11T16:38:20.468Z,0.70
2023-05-11T16:40:52.143Z,0.50
2023-05-11T16:43:22.770Z,0.30
2023-05-11T16:45:54.057Z,0.40
2023-05-11T16:48:26.331Z,0.47
2023-05-11T16:50:57.034Z,0.53
2023-05-11T16:53:27.933Z,0.43
2023-05-11T16:55:59.081Z,0.63
2023-05-11T16:58:31.047Z,0.57
2023-05-11T17:03:40.255Z,0.50
2023-05-11T17:06:12.647Z,0.50
2023-05-11T17:08:43.325Z,0.60
2023-05-11T17:11:14.522Z,0.63
2023-05-11T17:13:45.281Z,0.57
2023-05-11T17:16:21.400Z,0.60
2023-05-11T17:18:52.242Z,0.77
2023-05-11T17:21:23.020Z,0.67
2023-05-11T17:23:53.703Z,0.63
2023-05-11T17:26:27.414Z,0.80
2023-05-11T17:28:56.696Z,0.80
2023-05-11T17:31:27.602Z,0.63
2023-05-11T17:33:59.129Z,1.27
2023-05-11T17:36:31.139Z,0.53
2023-05-11T17:39:02.204Z,0.60
2023-05-11T17:41:32.934Z,0.53
2023-05-11T17:44:04.335Z,0.70
2023-05-11T17:46:35.144Z,0.80
2023-05-11T17:49:06.632Z,0.50
2023-05-11T17:51:37.392Z,0.80
2023-05-11T17:54:08.206Z,0.63
2023-05-11T17:56:38.826Z,0.70
2023-05-11T17:59:09.539Z,0.70
2023-05-11T18:01:40.277Z,0.72
2023-05-11T18:04:11.268Z,0.80
2023-05-11T18:06:42.590Z,0.70
2023-05-11T18:09:15.126Z,0.70
2023-05-11T18:11:46.385Z,0.70
2023-05-11T18:14:17.536Z,0.57
2023-05-11T18:16:49.462Z,0.50
2023-05-11T18:19:20.618Z,0.57
2023-05-11T18:21:52.314Z,0.90
2023-05-11T18:24:23.138Z,0.80
2023-05-11T18:26:53.778Z,0.90
2023-05-11T18:29:24.439Z,1.00
2023-05-11T18:31:57.928Z,1.00
2023-05-11T18:34:29.095Z,0.77
2023-05-11T18:36:59.940Z,1.00
2023-05-11T18:39:30.598Z,0.60
2023-05-11T18:42:03.247Z,0.67
2023-05-11T18:44:34.631Z,1.30
2023-05-11T18:47:06.842Z,1.03
2023-05-11T18:49:39.311Z,0.93
2023-05-11T18:52:12.678Z,1.50
2023-05-11T18:54:44.191Z,0.83
2023-05-11T18:57:16.703Z,0.90
2023-05-11T18:59:47.566Z,0.83
2023-05-11T19:02:18.513Z,0.93
2023-05-11T19:04:49.480Z,1.00
2023-05-11T19:07:20.733Z,1.13
2023-05-11T19:09:52.133Z,2.30
2023-05-11T19:12:22.907Z,1.30
2023-05-11T19:14:56.374Z,1.40
2023-05-11T19:17:27.121Z,1.07
2023-05-11T19:19:58.037Z,0.90
2023-05-11T19:22:29.092Z,1.10
2023-05-11T19:25:00.050Z,0.97
2023-05-11T19:27:30.963Z,1.20
2023-05-11T19:30:02.056Z,1.10
2023-05-11T19:32:33.055Z,1.47
2023-05-11T19:35:03.789Z,0.90
2023-05-11T19:37:35.294Z,1.20
2023-05-11T19:40:42.951Z,1.20
2023-05-11T19:42:40.065Z,0.83
2023-05-11T19:45:12.451Z,0.90
2023-05-11T19:47:43.303Z,0.80
2023-05-11T19:50:14.881Z,0.70
2023-05-11T19:52:45.664Z,0.63
2023-05-11T19:55:16.301Z,0.70
2023-05-11T19:57:46.986Z,0.80
2023-05-11T20:00:19.020Z,0.80
2023-05-11T20:02:50.838Z,0.67
2023-05-11T20:05:22.057Z,0.77
2023-05-11T20:07:52.879Z,1.00
2023-05-11T20:10:23.844Z,0.63
2023-05-11T20:12:55.137Z,0.73
2023-05-11T20:15:26.400Z,1.00
2023-05-11T20:17:57.263Z,0.77
2023-05-11T20:20:28.303Z,0.70
2023-05-11T20:22:59.353Z,1.07
2023-05-11T20:25:30.320Z,0.80
2023-05-11T20:28:01.917Z,0.70
2023-05-11T20:30:33.183Z,0.70
2023-05-11T20:35:37.368Z,0.77
2023-05-11T20:38:08.068Z,0.90
2023-05-11T20:40:38.808Z,0.83
2023-05-11T20:43:09.613Z,1.70
2023-05-11T20:45:40.449Z,1.00
2023-05-11T20:48:11.205Z,0.80
2023-05-11T20:50:41.865Z,0.90
2023-05-11T20:53:12.932Z,0.80
2023-05-11T20:55:43.658Z,0.63
2023-05-11T20:58:14.503Z,0.63
2023-05-11T21:00:45.376Z,0.83
2023-05-11T21:03:16.245Z,1.00
2023-05-11T21:05:47.311Z,0.93
2023-05-11T21:08:17.971Z,0.70
2023-05-11T21:10:48.691Z,0.93
2023-05-11T21:13:19.492Z,1.00
2023-05-11T21:18:29.857Z,0.90
2023-05-11T21:21:00.632Z,1.20
2023-05-11T21:23:31.877Z,1.27
2023-05-11T21:26:03.511Z,0.87
2023-05-11T21:28:34.788Z,0.90
2023-05-11T21:31:06.080Z,0.90
2023-05-11T21:33:37.993Z,0.87
2023-05-11T21:36:09.697Z,0.97
2023-05-11T21:38:40.297Z,1.10
2023-05-11T21:41:11.326Z,0.80
2023-05-11T21:43:41.999Z,1.00
2023-05-11T21:46:12.879Z,0.90
2023-05-11T21:48:43.763Z,1.20
2023-05-11T21:51:14.458Z,0.97
2023-05-11T21:53:45.179Z,1.00
2023-05-11T21:56:15.726Z,1.20
2023-05-11T21:58:46.420Z,1.23
2023-05-11T22:01:17.176Z,0.90
2023-05-11T22:03:47.886Z,1.23
2023-05-11T22:06:18.561Z,1.10
2023-05-11T22:08:49.383Z,0.80
2023-05-11T22:11:21.858Z,1.13
2023-05-11T22:13:52.734Z,0.90
2023-05-11T22:16:23.707Z,1.07
2023-05-11T22:18:54.626Z,0.90
2023-05-11T22:21:26.825Z,0.80
2023-05-11T22:23:57.571Z,0.90
2023-05-11T22:26:28.321Z,1.30
2023-05-11T22:28:58.918Z,1.20
2023-05-11T22:31:29.531Z,1.10
2023-05-11T22:34:00.777Z,1.00
2023-05-11T22:36:31.323Z,1.10
2023-05-11T22:39:02.239Z,1.83
2023-05-11T22:41:32.928Z,1.67
2023-05-11T22:44:04.322Z,0.90
2023-05-11T22:46:34.965Z,1.07
2023-05-11T22:49:05.665Z,1.40
2023-05-11T22:51:36.266Z,1.10
2023-05-11T22:54:07.215Z,1.00
2023-05-11T22:56:39.204Z,0.93
2023-05-11T22:59:09.834Z,1.20
2023-05-11T23:01:40.798Z,1.20
2023-05-11T23:04:11.601Z,0.90
2023-05-11T23:06:42.446Z,1.03
2023-05-11T23:09:13.779Z,1.13
2023-05-11T23:11:44.500Z,1.40
2023-05-11T23:14:15.201Z,1.20
2023-05-11T23:16:45.911Z,1.17
2023-05-11T23:19:17.032Z,1.10
2023-05-11T23:21:48.035Z,1.03
2023-05-11T23:24:18.634Z,1.40
2023-05-11T23:26:49.182Z,1.50
2023-05-11T23:29:20.183Z,1.30
2023-05-11T23:31:51.198Z,1.10
2023-05-11T23:34:22.051Z,1.00
2023-05-11T23:36:52.690Z,1.40
2023-05-11T23:39:23.383Z,1.37
2023-05-11T23:41:54.120Z,1.20
2023-05-11T23:44:24.723Z,1.27
2023-05-11T23:46:55.506Z,1.20
2023-05-11T23:49:26.228Z,1.30
2023-05-11T23:51:58.823Z,1.27
2023-05-11T23:54:29.528Z,0.83
2023-05-11T23:57:00.363Z,1.17
2023-05-11T23:59:31.012Z,1.23
